sensor_id;sensor_type;location;lat;lon;timestamp;P1;durP1;ratioP1;P2;durP2;ratioP2
5010;SDS011;2524;54.364;10.072;2023-03-01T00:02:18;10.63;;;9.53;;
5010;SDS011;2524;54.364;10.072;2023-03-01T00:04:44;12.00;;;9.60;;
5010;SDS011;2524;54.364;10.072;2023-03-01T00:07:10;10.13;;;9.07;;
5010;SDS011;2524;54.364;10.072;2023-03-01T00:09:36;10.30;;;9.20;;
5010;SDS011;2524;54.364;10.072;2023-03-01T00:12:02;10.30;;;8.80;;
5010;SDS011;2524;54.364;10.072;2023-03-01T00:14:28;14.67;;;10.27;;
5010;SDS011;2524;54.364;10.072;2023-03-01T00:16:53;14.13;;;9.67;;
5010;SDS011;2524;54.364;10.072;2023-03-01T00:19:19;13.30;;;10.00;;
5010;SDS011;2524;54.364;10.072;2023-03-01T00:21:47;17.73;;;12.30;;
5010;SDS011;2524;54.364;10.072;2023-03-01T00:24:13;17.60;;;11.43;;
5010;SDS011;2524;54.364;10.072;2023-03-01T00:26:39;13.23;;;10.13;;
5010;SDS011;2524;54.364;10.072;2023-03-01T00:29:05;14.97;;;10.93;;
5010;SDS011;2524;54.364;10.072;2023-03-01T00:31:31;13.47;;;10.73;;
5010;SDS011;2524;54.364;10.072;2023-03-01T00:34:02;14.70;;;10.80;;
5010;SDS011;2524;54.364;10.072;2023-03-01T00:36:29;12.93;;;10.30;;
5010;SDS011;2524;54.364;10.072;2023-03-01T00:38:57;11.90;;;10.37;;
5010;SDS011;2524;54.364;10.072;2023-03-01T00:41:23;9.57;;;8.67;;
5010;SDS011;2524;54.364;10.072;2023-03-01T00:43:51;9.80;;;8.90;;
5010;SDS011;2524;54.364;10.072;2023-03-01T00:46:18;12.00;;;10.40;;
5010;SDS011;2524;54.364;10.072;2023-03-01T00:48:46;11.00;;;9.90;;
5010;SDS011;2524;54.364;10.072;2023-03-01T00:51:14;11.87;;;10.20;;
5010;SDS011;2524;54.364;10.072;2023-03-01T00:53:41;9.60;;;8.80;;
5010;SDS011;2524;54.364;10.072;2023-03-01T00:56:08;10.00;;;9.10;;
5010;SDS011;2524;54.364;10.072;2023-03-01T00:58:35;10.10;;;9.20;;
5010;SDS011;2524;54.364;10.072;2023-03-01T01:01:06;8.90;;;8.20;;
5010;SDS011;2524;54.364;10.072;2023-03-01T01:03:41;9.30;;;8.50;;
5010;SDS011;2524;54.364;10.072;2023-03-01T01:06:31;8.20;;;7.40;;
5010;SDS011;2524;54.364;10.072;2023-03-01T01:09:00;9.40;;;8.53;;
5010;SDS011;2524;54.364;10.072;2023-03-01T01:11:27;9.53;;;8.70;;
5010;SDS011;2524;54.364;10.072;2023-03-01T01:13:54;8.90;;;8.10;;
5010;SDS011;2524;54.364;10.072;2023-03-01T01:16:22;9.43;;;8.60;;
5010;SDS011;2524;54.364;10.072;2023-03-01T01:18:49;8.33;;;7.53;;
5010;SDS011;2524;54.364;10.072;2023-03-01T01:21:16;8.50;;;7.70;;
5010;SDS011;2524;54.364;10.072;2023-03-01T01:23:43;8.60;;;7.90;;
5010;SDS011;2524;54.364;10.072;2023-03-01T01:26:11;8.60;;;7.80;;
5010;SDS011;2524;54.364;10.072;2023-03-01T01:28:40;8.80;;;8.00;;
5010;SDS011;2524;54.364;10.072;2023-03-01T01:31:06;8.30;;;7.60;;
5010;SDS011;2524;54.364;10.072;2023-03-01T01:33:32;8.83;;;8.03;;
5010;SDS011;2524;54.364;10.072;2023-03-01T01:35:58;8.93;;;8.13;;
5010;SDS011;2524;54.364;10.072;2023-03-01T01:38:23;8.10;;;7.40;;
5010;SDS011;2524;54.364;10.072;2023-03-01T01:40:50;8.93;;;8.13;;
5010;SDS011;2524;54.364;10.072;2023-03-01T01:43:18;9.13;;;8.33;;
5010;SDS011;2524;54.364;10.072;2023-03-01T01:45:47;9.73;;;8.80;;
5010;SDS011;2524;54.364;10.072;2023-03-01T01:48:14;10.33;;;9.20;;
5010;SDS011;2524;54.364;10.072;2023-03-01T01:50:45;9.40;;;8.50;;
5010;SDS011;2524;54.364;10.072;2023-03-01T01:53:20;9.97;;;9.07;;
5010;SDS011;2524;54.364;10.072;2023-03-01T01:55:47;9.63;;;8.83;;
5010;SDS011;2524;54.364;10.072;2023-03-01T01:58:19;8.80;;;8.10;;
5010;SDS011;2524;54.364;10.072;2023-03-01T02:00:46;8.90;;;8.20;;
5010;SDS011;2524;54.364;10.072;2023-03-01T02:03:15;8.60;;;7.90;;
5010;SDS011;2524;54.364;10.072;2023-03-01T02:08:17;8.10;;;7.40;;
5010;SDS011;2524;54.364;10.072;2023-03-01T02:10:45;8.23;;;7.47;;
5010;SDS011;2524;54.364;10.072;2023-03-01T02:13:11;7.73;;;7.10;;
5010;SDS011;2524;54.364;10.072;2023-03-01T02:15:38;9.00;;;8.27;;
5010;SDS011;2524;54.364;10.072;2023-03-01T02:18:05;9.80;;;8.87;;
5010;SDS011;2524;54.364;10.072;2023-03-01T02:23:08;9.10;;;8.40;;
5010;SDS011;2524;54.364;10.072;2023-03-01T02:25:36;8.47;;;7.77;;
5010;SDS011;2524;54.364;10.072;2023-03-01T02:30:39;9.20;;;8.40;;
5010;SDS011;2524;54.364;10.072;2023-03-01T02:33:28;8.87;;;8.17;;
5010;SDS011;2524;54.364;10.072;2023-03-01T02:35:58;9.07;;;8.27;;
5010;SDS011;2524;54.364;10.072;2023-03-01T02:38:26;8.33;;;7.63;;
5010;SDS011;2524;54.364;10.072;2023-03-01T02:40:53;7.60;;;7.00;;
5010;SDS011;2524;54.364;10.072;2023-03-01T02:43:21;7.57;;;6.97;;
5010;SDS011;2524;54.364;10.072;2023-03-01T02:45:50;8.67;;;7.97;;
5010;SDS011;2524;54.364;10.072;2023-03-01T02:48:18;7.87;;;7.20;;
5010;SDS011;2524;54.364;10.072;2023-03-01T02:50:47;8.20;;;7.50;;
5010;SDS011;2524;54.364;10.072;2023-03-01T02:53:45;6.93;;;6.43;;
5010;SDS011;2524;54.364;10.072;2023-03-01T02:56:26;7.60;;;6.90;;
5010;SDS011;2524;54.364;10.072;2023-03-01T02:58:53;7.93;;;7.30;;
5010;SDS011;2524;54.364;10.072;2023-03-01T03:01:19;7.43;;;6.87;;
5010;SDS011;2524;54.364;10.072;2023-03-01T03:03:45;7.60;;;7.10;;
5010;SDS011;2524;54.364;10.072;2023-03-01T03:06:10;7.47;;;6.87;;
5010;SDS011;2524;54.364;10.072;2023-03-01T03:08:36;7.10;;;6.60;;
5010;SDS011;2524;54.364;10.072;2023-03-01T03:11:02;5.57;;;5.17;;
5010;SDS011;2524;54.364;10.072;2023-03-01T03:13:28;6.83;;;6.33;;
5010;SDS011;2524;54.364;10.072;2023-03-01T03:15:54;7.90;;;7.30;;
5010;SDS011;2524;54.364;10.072;2023-03-01T03:18:21;6.73;;;6.23;;
5010;SDS011;2524;54.364;10.072;2023-03-01T03:20:47;7.50;;;7.00;;
5010;SDS011;2524;54.364;10.072;2023-03-01T03:23:18;7.43;;;6.90;;
5010;SDS011;2524;54.364;10.072;2023-03-01T03:25:44;7.37;;;6.77;;
5010;SDS011;2524;54.364;10.072;2023-03-01T03:28:12;6.70;;;6.30;;
5010;SDS011;2524;54.364;10.072;2023-03-01T03:30:39;6.83;;;6.33;;
5010;SDS011;2524;54.364;10.072;2023-03-01T03:33:05;6.73;;;6.30;;
5010;SDS011;2524;54.364;10.072;2023-03-01T03:35:33;7.47;;;6.87;;
5010;SDS011;2524;54.364;10.072;2023-03-01T03:38:04;7.53;;;7.00;;
5010;SDS011;2524;54.364;10.072;2023-03-01T03:40:38;7.30;;;6.70;;
5010;SDS011;2524;54.364;10.072;2023-03-01T03:43:06;6.40;;;6.00;;
5010;SDS011;2524;54.364;10.072;2023-03-01T03:45:33;7.27;;;6.67;;
5010;SDS011;2524;54.364;10.072;2023-03-01T03:48:00;7.00;;;6.50;;
5010;SDS011;2524;54.364;10.072;2023-03-01T03:50:26;7.70;;;7.10;;
5010;SDS011;2524;54.364;10.072;2023-03-01T03:52:52;6.90;;;6.40;;
5010;SDS011;2524;54.364;10.072;2023-03-01T03:55:17;7.30;;;6.80;;
5010;SDS011;2524;54.364;10.072;2023-03-01T03:57:44;7.20;;;6.60;;
5010;SDS011;2524;54.364;10.072;2023-03-01T04:00:19;7.77;;;7.10;;
5010;SDS011;2524;54.364;10.072;2023-03-01T04:02:47;7.27;;;6.67;;
5010;SDS011;2524;54.364;10.072;2023-03-01T04:05:14;7.50;;;6.90;;
5010;SDS011;2524;54.364;10.072;2023-03-01T04:07:41;7.97;;;7.27;;
5010;SDS011;2524;54.364;10.072;2023-03-01T04:10:09;9.07;;;8.17;;
5010;SDS011;2524;54.364;10.072;2023-03-01T04:12:40;8.43;;;7.73;;
5010;SDS011;2524;54.364;10.072;2023-03-01T04:15:08;8.80;;;8.00;;
5010;SDS011;2524;54.364;10.072;2023-03-01T04:17:47;8.13;;;7.40;;
5010;SDS011;2524;54.364;10.072;2023-03-01T04:20:13;7.60;;;7.00;;
5010;SDS011;2524;54.364;10.072;2023-03-01T04:22:49;6.83;;;6.33;;
5010;SDS011;2524;54.364;10.072;2023-03-01T04:25:16;7.00;;;6.50;;
5010;SDS011;2524;54.364;10.072;2023-03-01T04:27:42;7.00;;;6.50;;
5010;SDS011;2524;54.364;10.072;2023-03-01T04:30:08;7.40;;;6.83;;
5010;SDS011;2524;54.364;10.072;2023-03-01T04:32:34;7.47;;;6.77;;
5010;SDS011;2524;54.364;10.072;2023-03-01T04:35:00;5.90;;;5.50;;
5010;SDS011;2524;54.364;10.072;2023-03-01T04:37:26;6.63;;;6.13;;
5010;SDS011;2524;54.364;10.072;2023-03-01T04:39:52;6.27;;;5.77;;
5010;SDS011;2524;54.364;10.072;2023-03-01T04:42:18;6.07;;;5.67;;
5010;SDS011;2524;54.364;10.072;2023-03-01T04:44:44;6.40;;;6.00;;
5010;SDS011;2524;54.364;10.072;2023-03-01T04:47:10;6.47;;;6.07;;
5010;SDS011;2524;54.364;10.072;2023-03-01T04:49:35;7.43;;;6.83;;
5010;SDS011;2524;54.364;10.072;2023-03-01T04:52:01;6.33;;;5.90;;
5010;SDS011;2524;54.364;10.072;2023-03-01T04:54:27;6.67;;;6.17;;
5010;SDS011;2524;54.364;10.072;2023-03-01T04:56:54;6.67;;;6.17;;
5010;SDS011;2524;54.364;10.072;2023-03-01T04:59:20;7.00;;;6.50;;
5010;SDS011;2524;54.364;10.072;2023-03-01T05:01:47;6.03;;;5.53;;
5010;SDS011;2524;54.364;10.072;2023-03-01T05:04:14;5.67;;;5.30;;
5010;SDS011;2524;54.364;10.072;2023-03-01T05:06:40;6.13;;;5.73;;
5010;SDS011;2524;54.364;10.072;2023-03-01T05:09:05;6.00;;;5.60;;
5010;SDS011;2524;54.364;10.072;2023-03-01T05:11:31;5.80;;;5.47;;
5010;SDS011;2524;54.364;10.072;2023-03-01T05:14:07;5.73;;;5.37;;
5010;SDS011;2524;54.364;10.072;2023-03-01T05:16:34;7.23;;;6.67;;
5010;SDS011;2524;54.364;10.072;2023-03-01T05:19:01;5.93;;;5.53;;
5010;SDS011;2524;54.364;10.072;2023-03-01T05:21:36;34.10;;;6.90;;
5010;SDS011;2524;54.364;10.072;2023-03-01T05:24:23;6.23;;;5.83;;
5010;SDS011;2524;54.364;10.072;2023-03-01T05:26:49;6.13;;;5.73;;
5010;SDS011;2524;54.364;10.072;2023-03-01T05:29:17;5.93;;;5.63;;
5010;SDS011;2524;54.364;10.072;2023-03-01T05:31:50;6.40;;;5.90;;
5010;SDS011;2524;54.364;10.072;2023-03-01T05:34:18;6.57;;;6.07;;
5010;SDS011;2524;54.364;10.072;2023-03-01T05:36:47;5.50;;;5.10;;
5010;SDS011;2524;54.364;10.072;2023-03-01T05:39:13;5.90;;;5.50;;
5010;SDS011;2524;54.364;10.072;2023-03-01T05:41:39;6.27;;;5.87;;
5010;SDS011;2524;54.364;10.072;2023-03-01T05:44:06;6.53;;;5.97;;
5010;SDS011;2524;54.364;10.072;2023-03-01T05:46:31;6.47;;;5.97;;
5010;SDS011;2524;54.364;10.072;2023-03-01T05:48:57;5.63;;;5.27;;
5010;SDS011;2524;54.364;10.072;2023-03-01T05:51:22;5.97;;;5.57;;
5010;SDS011;2524;54.364;10.072;2023-03-01T05:53:48;5.83;;;5.43;;
5010;SDS011;2524;54.364;10.072;2023-03-01T05:56:14;7.63;;;6.93;;
5010;SDS011;2524;54.364;10.072;2023-03-01T05:58:39;6.47;;;5.97;;
5010;SDS011;2524;54.364;10.072;2023-03-01T06:01:05;6.90;;;6.30;;
5010;SDS011;2524;54.364;10.072;2023-03-01T06:03:30;6.37;;;5.90;;
5010;SDS011;2524;54.364;10.072;2023-03-01T06:05:56;6.30;;;5.80;;
5010;SDS011;2524;54.364;10.072;2023-03-01T06:08:23;5.77;;;5.37;;
5010;SDS011;2524;54.364;10.072;2023-03-01T06:10:51;5.93;;;5.53;;
5010;SDS011;2524;54.364;10.072;2023-03-01T06:13:17;6.30;;;5.80;;
5010;SDS011;2524;54.364;10.072;2023-03-01T06:15:42;6.30;;;5.80;;
5010;SDS011;2524;54.364;10.072;2023-03-01T06:18:08;5.30;;;4.90;;
5010;SDS011;2524;54.364;10.072;2023-03-01T06:20:33;5.57;;;5.17;;
5010;SDS011;2524;54.364;10.072;2023-03-01T06:23:00;6.20;;;5.70;;
5010;SDS011;2524;54.364;10.072;2023-03-01T06:25:27;5.67;;;5.27;;
5010;SDS011;2524;54.364;10.072;2023-03-01T06:27:53;5.50;;;5.10;;
5010;SDS011;2524;54.364;10.072;2023-03-01T06:30:19;5.80;;;5.40;;
5010;SDS011;2524;54.364;10.072;2023-03-01T06:32:46;4.57;;;4.33;;
5010;SDS011;2524;54.364;10.072;2023-03-01T06:35:13;5.20;;;4.90;;
5010;SDS011;2524;54.364;10.072;2023-03-01T06:37:42;6.43;;;5.97;;
5010;SDS011;2524;54.364;10.072;2023-03-01T06:40:07;5.40;;;5.10;;
5010;SDS011;2524;54.364;10.072;2023-03-01T06:42:36;6.23;;;5.83;;
5010;SDS011;2524;54.364;10.072;2023-03-01T06:45:04;5.00;;;4.70;;
5010;SDS011;2524;54.364;10.072;2023-03-01T06:47:32;15.13;;;6.63;;
5010;SDS011;2524;54.364;10.072;2023-03-01T06:49:58;6.30;;;5.80;;
5010;SDS011;2524;54.364;10.072;2023-03-01T06:52:27;5.90;;;5.50;;
5010;SDS011;2524;54.364;10.072;2023-03-01T06:54:53;6.10;;;5.70;;
5010;SDS011;2524;54.364;10.072;2023-03-01T06:57:19;5.10;;;4.80;;
5010;SDS011;2524;54.364;10.072;2023-03-01T06:59:45;6.20;;;5.80;;
5010;SDS011;2524;54.364;10.072;2023-03-01T07:02:12;6.07;;;5.67;;
5010;SDS011;2524;54.364;10.072;2023-03-01T07:04:39;5.90;;;5.43;;
5010;SDS011;2524;54.364;10.072;2023-03-01T07:07:05;5.60;;;5.20;;
5010;SDS011;2524;54.364;10.072;2023-03-01T07:09:31;6.13;;;5.63;;
5010;SDS011;2524;54.364;10.072;2023-03-01T07:11:57;5.30;;;5.00;;
5010;SDS011;2524;54.364;10.072;2023-03-01T07:14:23;5.80;;;5.40;;
5010;SDS011;2524;54.364;10.072;2023-03-01T07:16:50;4.20;;;4.00;;
5010;SDS011;2524;54.364;10.072;2023-03-01T07:19:16;4.77;;;4.47;;
5010;SDS011;2524;54.364;10.072;2023-03-01T07:21:42;4.07;;;3.87;;
5010;SDS011;2524;54.364;10.072;2023-03-01T07:24:08;5.83;;;5.43;;
5010;SDS011;2524;54.364;10.072;2023-03-01T07:26:34;5.00;;;4.60;;
5010;SDS011;2524;54.364;10.072;2023-03-01T07:29:00;5.80;;;5.40;;
5010;SDS011;2524;54.364;10.072;2023-03-01T07:31:26;5.00;;;4.70;;
5010;SDS011;2524;54.364;10.072;2023-03-01T07:33:55;4.10;;;3.90;;
5010;SDS011;2524;54.364;10.072;2023-03-01T07:36:21;4.10;;;3.90;;
5010;SDS011;2524;54.364;10.072;2023-03-01T07:38:47;4.43;;;4.23;;
5010;SDS011;2524;54.364;10.072;2023-03-01T07:41:12;5.07;;;4.77;;
5010;SDS011;2524;54.364;10.072;2023-03-01T07:43:39;4.93;;;4.67;;
5010;SDS011;2524;54.364;10.072;2023-03-01T07:46:05;4.50;;;4.30;;
5010;SDS011;2524;54.364;10.072;2023-03-01T07:48:31;5.10;;;4.70;;
5010;SDS011;2524;54.364;10.072;2023-03-01T07:50:58;4.57;;;4.17;;
5010;SDS011;2524;54.364;10.072;2023-03-01T07:53:24;3.67;;;3.50;;
5010;SDS011;2524;54.364;10.072;2023-03-01T07:55:50;3.30;;;3.20;;
5010;SDS011;2524;54.364;10.072;2023-03-01T07:58:25;2.63;;;2.60;;
5010;SDS011;2524;54.364;10.072;2023-03-01T08:00:51;2.90;;;2.90;;
5010;SDS011;2524;54.364;10.072;2023-03-01T08:03:16;3.10;;;3.00;;
5010;SDS011;2524;54.364;10.072;2023-03-01T08:05:42;3.90;;;3.70;;
5010;SDS011;2524;54.364;10.072;2023-03-01T08:08:07;4.30;;;4.10;;
5010;SDS011;2524;54.364;10.072;2023-03-01T08:10:33;4.23;;;4.03;;
5010;SDS011;2524;54.364;10.072;2023-03-01T08:12:58;4.93;;;4.60;;
5010;SDS011;2524;54.364;10.072;2023-03-01T08:15:24;6.90;;;5.30;;
5010;SDS011;2524;54.364;10.072;2023-03-01T08:17:50;5.70;;;5.30;;
5010;SDS011;2524;54.364;10.072;2023-03-01T08:20:15;3.90;;;3.77;;
5010;SDS011;2524;54.364;10.072;2023-03-01T08:22:41;4.17;;;3.97;;
5010;SDS011;2524;54.364;10.072;2023-03-01T08:25:07;3.40;;;3.30;;
5010;SDS011;2524;54.364;10.072;2023-03-01T08:27:33;3.40;;;3.27;;
5010;SDS011;2524;54.364;10.072;2023-03-01T08:29:58;4.03;;;3.83;;
5010;SDS011;2524;54.364;10.072;2023-03-01T08:32:24;4.17;;;3.97;;
5010;SDS011;2524;54.364;10.072;2023-03-01T08:34:50;3.80;;;3.70;;
5010;SDS011;2524;54.364;10.072;2023-03-01T08:37:15;3.90;;;3.70;;
5010;SDS011;2524;54.364;10.072;2023-03-01T08:39:41;3.70;;;3.50;;
5010;SDS011;2524;54.364;10.072;2023-03-01T08:42:06;3.67;;;3.57;;
5010;SDS011;2524;54.364;10.072;2023-03-01T08:44:32;3.53;;;3.43;;
5010;SDS011;2524;54.364;10.072;2023-03-01T08:46:58;4.40;;;4.20;;
5010;SDS011;2524;54.364;10.072;2023-03-01T08:49:25;4.90;;;4.70;;
5010;SDS011;2524;54.364;10.072;2023-03-01T08:51:50;4.47;;;4.27;;
5010;SDS011;2524;54.364;10.072;2023-03-01T08:54:18;3.77;;;3.57;;
5010;SDS011;2524;54.364;10.072;2023-03-01T08:56:45;3.40;;;3.30;;
5010;SDS011;2524;54.364;10.072;2023-03-01T08:59:11;3.13;;;3.07;;
5010;SDS011;2524;54.364;10.072;2023-03-01T09:01:38;4.93;;;4.63;;
5010;SDS011;2524;54.364;10.072;2023-03-01T09:04:05;4.77;;;4.47;;
5010;SDS011;2524;54.364;10.072;2023-03-01T09:06:31;4.40;;;4.20;;
5010;SDS011;2524;54.364;10.072;2023-03-01T09:08:58;4.83;;;4.50;;
5010;SDS011;2524;54.364;10.072;2023-03-01T09:11:24;4.50;;;4.30;;
5010;SDS011;2524;54.364;10.072;2023-03-01T09:13:49;4.40;;;4.10;;
5010;SDS011;2524;54.364;10.072;2023-03-01T09:16:17;5.73;;;5.23;;
5010;SDS011;2524;54.364;10.072;2023-03-01T09:18:44;4.53;;;4.23;;
5010;SDS011;2524;54.364;10.072;2023-03-01T09:21:14;7.23;;;6.63;;
5010;SDS011;2524;54.364;10.072;2023-03-01T09:23:42;6.87;;;6.37;;
5010;SDS011;2524;54.364;10.072;2023-03-01T09:26:10;5.30;;;4.90;;
5010;SDS011;2524;54.364;10.072;2023-03-01T09:28:46;3.93;;;3.73;;
5010;SDS011;2524;54.364;10.072;2023-03-01T09:31:14;4.37;;;4.17;;
5010;SDS011;2524;54.364;10.072;2023-03-01T09:33:41;3.97;;;3.77;;
5010;SDS011;2524;54.364;10.072;2023-03-01T09:36:11;3.93;;;3.80;;
5010;SDS011;2524;54.364;10.072;2023-03-01T09:38:38;4.90;;;4.50;;
5010;SDS011;2524;54.364;10.072;2023-03-01T09:41:09;5.77;;;5.37;;
5010;SDS011;2524;54.364;10.072;2023-03-01T09:43:45;7.50;;;6.80;;
5010;SDS011;2524;54.364;10.072;2023-03-01T09:46:18;6.90;;;6.30;;
5010;SDS011;2524;54.364;10.072;2023-03-01T09:51:29;4.90;;;4.60;;
5010;SDS011;2524;54.364;10.072;2023-03-01T09:53:57;3.90;;;3.70;;
5010;SDS011;2524;54.364;10.072;2023-03-01T09:58:59;4.97;;;4.67;;
5010;SDS011;2524;54.364;10.072;2023-03-01T10:01:50;9.80;;;7.90;;
5010;SDS011;2524;54.364;10.072;2023-03-01T10:04:45;9.50;;;7.27;;
5010;SDS011;2524;54.364;10.072;2023-03-01T10:09:46;4.37;;;4.07;;
5010;SDS011;2524;54.364;10.072;2023-03-01T10:12:46;3.47;;;3.37;;
5010;SDS011;2524;54.364;10.072;2023-03-01T10:15:09;3.13;;;3.03;;
5010;SDS011;2524;54.364;10.072;2023-03-01T10:20:18;3.90;;;3.70;;
5010;SDS011;2524;54.364;10.072;2023-03-01T10:22:52;4.73;;;4.50;;
5010;SDS011;2524;54.364;10.072;2023-03-01T10:28:40;4.70;;;4.50;;
5010;SDS011;2524;54.364;10.072;2023-03-01T10:31:36;4.83;;;4.53;;
5010;SDS011;2524;54.364;10.072;2023-03-01T10:34:12;7.17;;;6.57;;
5010;SDS011;2524;54.364;10.072;2023-03-01T10:36:39;4.30;;;4.10;;
5010;SDS011;2524;54.364;10.072;2023-03-01T10:39:17;3.53;;;3.43;;
5010;SDS011;2524;54.364;10.072;2023-03-01T10:42:01;5.77;;;5.37;;
5010;SDS011;2524;54.364;10.072;2023-03-01T10:44:44;5.80;;;5.30;;
5010;SDS011;2524;54.364;10.072;2023-03-01T10:47:16;4.10;;;3.90;;
5010;SDS011;2524;54.364;10.072;2023-03-01T10:50:01;3.17;;;3.07;;
5010;SDS011;2524;54.364;10.072;2023-03-01T10:52:33;3.40;;;3.30;;
5010;SDS011;2524;54.364;10.072;2023-03-01T10:55:03;4.50;;;4.17;;
5010;SDS011;2524;54.364;10.072;2023-03-01T10:57:49;3.50;;;3.30;;
5010;SDS011;2524;54.364;10.072;2023-03-01T11:05:25;4.50;;;4.30;;
5010;SDS011;2524;54.364;10.072;2023-03-01T11:07:54;3.30;;;3.20;;
5010;SDS011;2524;54.364;10.072;2023-03-01T11:10:34;3.13;;;3.03;;
5010;SDS011;2524;54.364;10.072;2023-03-01T11:13:16;3.73;;;3.53;;
5010;SDS011;2524;54.364;10.072;2023-03-01T11:16:00;3.40;;;3.20;;
5010;SDS011;2524;54.364;10.072;2023-03-01T11:18:29;3.80;;;3.60;;
5010;SDS011;2524;54.364;10.072;2023-03-01T11:20:56;3.60;;;3.50;;
5010;SDS011;2524;54.364;10.072;2023-03-01T11:23:24;3.63;;;3.50;;
5010;SDS011;2524;54.364;10.072;2023-03-01T11:25:56;3.30;;;3.20;;
5010;SDS011;2524;54.364;10.072;2023-03-01T11:28:25;3.93;;;3.83;;
5010;SDS011;2524;54.364;10.072;2023-03-01T11:31:03;3.10;;;3.00;;
5010;SDS011;2524;54.364;10.072;2023-03-01T11:38:38;4.13;;;3.93;;
5010;SDS011;2524;54.364;10.072;2023-03-01T11:41:10;3.93;;;3.73;;
5010;SDS011;2524;54.364;10.072;2023-03-01T11:49:18;3.10;;;3.00;;
5010;SDS011;2524;54.364;10.072;2023-03-01T12:08:46;3.93;;;3.73;;
5010;SDS011;2524;54.364;10.072;2023-03-01T12:16:53;2.60;;;2.60;;
5010;SDS011;2524;54.364;10.072;2023-03-01T12:19:37;4.70;;;4.30;;
5010;SDS011;2524;54.364;10.072;2023-03-01T12:22:17;5.13;;;4.83;;
5010;SDS011;2524;54.364;10.072;2023-03-01T12:25:04;4.77;;;4.47;;
5010;SDS011;2524;54.364;10.072;2023-03-01T12:41:17;4.97;;;4.67;;
5010;SDS011;2524;54.364;10.072;2023-03-01T12:49:30;4.10;;;3.90;;
5010;SDS011;2524;54.364;10.072;2023-03-01T12:52:02;5.33;;;5.00;;
5010;SDS011;2524;54.364;10.072;2023-03-01T12:54:35;4.23;;;4.03;;
5010;SDS011;2524;54.364;10.072;2023-03-01T12:57:15;4.03;;;3.83;;
5010;SDS011;2524;54.364;10.072;2023-03-01T13:00:00;5.60;;;4.30;;
5010;SDS011;2524;54.364;10.072;2023-03-01T13:02:48;2.77;;;2.67;;
5010;SDS011;2524;54.364;10.072;2023-03-01T13:08:29;4.10;;;3.90;;
5010;SDS011;2524;54.364;10.072;2023-03-01T13:11:05;4.20;;;4.00;;
5010;SDS011;2524;54.364;10.072;2023-03-01T13:13:36;3.80;;;3.63;;
5010;SDS011;2524;54.364;10.072;2023-03-01T13:16:19;4.80;;;4.50;;
5010;SDS011;2524;54.364;10.072;2023-03-01T13:19:12;4.67;;;4.37;;
5010;SDS011;2524;54.364;10.072;2023-03-01T13:21:39;4.23;;;3.93;;
5010;SDS011;2524;54.364;10.072;2023-03-01T13:24:22;3.67;;;3.50;;
5010;SDS011;2524;54.364;10.072;2023-03-01T13:34:52;6.40;;;6.00;;
5010;SDS011;2524;54.364;10.072;2023-03-01T13:37:25;4.60;;;4.30;;
5010;SDS011;2524;54.364;10.072;2023-03-01T13:39:57;5.47;;;5.13;;
5010;SDS011;2524;54.364;10.072;2023-03-01T13:45:19;3.87;;;3.67;;
5010;SDS011;2524;54.364;10.072;2023-03-01T13:48:11;4.00;;;3.80;;
5010;SDS011;2524;54.364;10.072;2023-03-01T13:50:47;3.13;;;3.00;;
5010;SDS011;2524;54.364;10.072;2023-03-01T13:53:18;5.00;;;4.70;;
5010;SDS011;2524;54.364;10.072;2023-03-01T13:55:57;5.57;;;5.27;;
5010;SDS011;2524;54.364;10.072;2023-03-01T14:00:56;5.90;;;5.50;;
5010;SDS011;2524;54.364;10.072;2023-03-01T14:03:26;5.43;;;5.03;;
5010;SDS011;2524;54.364;10.072;2023-03-01T14:05:58;5.90;;;5.47;;
5010;SDS011;2524;54.364;10.072;2023-03-01T14:08:32;6.10;;;5.60;;
5010;SDS011;2524;54.364;10.072;2023-03-01T14:19:18;3.83;;;3.63;;
5010;SDS011;2524;54.364;10.072;2023-03-01T14:21:50;5.00;;;4.70;;
5010;SDS011;2524;54.364;10.072;2023-03-01T14:24:27;3.70;;;3.50;;
5010;SDS011;2524;54.364;10.072;2023-03-01T14:26:52;4.87;;;4.57;;
5010;SDS011;2524;54.364;10.072;2023-03-01T14:29:35;4.93;;;4.63;;
5010;SDS011;2524;54.364;10.072;2023-03-01T14:32:18;4.73;;;4.43;;
5010;SDS011;2524;54.364;10.072;2023-03-01T14:34:47;4.50;;;4.30;;
5010;SDS011;2524;54.364;10.072;2023-03-01T14:37:18;3.83;;;3.63;;
5010;SDS011;2524;54.364;10.072;2023-03-01T14:39:46;5.17;;;4.87;;
5010;SDS011;2524;54.364;10.072;2023-03-01T14:42:12;3.83;;;3.73;;
5010;SDS011;2524;54.364;10.072;2023-03-01T14:44:40;5.90;;;5.50;;
5010;SDS011;2524;54.364;10.072;2023-03-01T14:47:11;6.90;;;6.30;;
5010;SDS011;2524;54.364;10.072;2023-03-01T14:49:44;6.43;;;5.83;;
5010;SDS011;2524;54.364;10.072;2023-03-01T14:52:24;4.63;;;4.33;;
5010;SDS011;2524;54.364;10.072;2023-03-01T14:54:56;4.23;;;3.93;;
5010;SDS011;2524;54.364;10.072;2023-03-01T14:57:23;13.87;;;9.90;;
5010;SDS011;2524;54.364;10.072;2023-03-01T14:59:51;6.40;;;5.80;;
5010;SDS011;2524;54.364;10.072;2023-03-01T15:02:20;5.77;;;5.33;;
5010;SDS011;2524;54.364;10.072;2023-03-01T15:04:50;5.20;;;4.80;;
5010;SDS011;2524;54.364;10.072;2023-03-01T15:07:17;4.60;;;4.20;;
5010;SDS011;2524;54.364;10.072;2023-03-01T15:09:44;4.00;;;3.80;;
5010;SDS011;2524;54.364;10.072;2023-03-01T15:14:57;6.47;;;5.87;;
5010;SDS011;2524;54.364;10.072;2023-03-01T15:20:00;5.97;;;5.37;;
5010;SDS011;2524;54.364;10.072;2023-03-01T15:22:30;3.37;;;3.17;;
5010;SDS011;2524;54.364;10.072;2023-03-01T15:24:56;4.40;;;4.10;;
5010;SDS011;2524;54.364;10.072;2023-03-01T15:27:23;4.93;;;4.60;;
5010;SDS011;2524;54.364;10.072;2023-03-01T15:29:53;5.07;;;4.60;;
5010;SDS011;2524;54.364;10.072;2023-03-01T15:32:26;5.10;;;4.70;;
5010;SDS011;2524;54.364;10.072;2023-03-01T15:34:57;4.60;;;4.30;;
5010;SDS011;2524;54.364;10.072;2023-03-01T15:40:21;8.87;;;8.03;;
5010;SDS011;2524;54.364;10.072;2023-03-01T15:42:56;8.47;;;7.67;;
5010;SDS011;2524;54.364;10.072;2023-03-01T15:45:29;6.90;;;6.40;;
5010;SDS011;2524;54.364;10.072;2023-03-01T15:48:00;7.27;;;6.57;;
5010;SDS011;2524;54.364;10.072;2023-03-01T15:50:29;8.00;;;7.30;;
5010;SDS011;2524;54.364;10.072;2023-03-01T15:52:58;8.13;;;7.30;;
5010;SDS011;2524;54.364;10.072;2023-03-01T15:55:26;7.27;;;6.20;;
5010;SDS011;2524;54.364;10.072;2023-03-01T15:58:12;6.60;;;5.87;;
5010;SDS011;2524;54.364;10.072;2023-03-01T16:00:40;6.27;;;5.77;;
5010;SDS011;2524;54.364;10.072;2023-03-01T16:03:07;8.63;;;7.70;;
5010;SDS011;2524;54.364;10.072;2023-03-01T16:05:36;5.43;;;5.03;;
5010;SDS011;2524;54.364;10.072;2023-03-01T16:08:03;7.53;;;6.73;;
5010;SDS011;2524;54.364;10.072;2023-03-01T16:10:31;7.30;;;6.63;;
5010;SDS011;2524;54.364;10.072;2023-03-01T16:12:58;7.53;;;6.83;;
5010;SDS011;2524;54.364;10.072;2023-03-01T16:15:28;4.97;;;4.67;;
5010;SDS011;2524;54.364;10.072;2023-03-01T16:17:55;4.70;;;4.30;;
5010;SDS011;2524;54.364;10.072;2023-03-01T16:20:22;4.70;;;4.40;;
5010;SDS011;2524;54.364;10.072;2023-03-01T16:22:48;4.40;;;4.10;;
5010;SDS011;2524;54.364;10.072;2023-03-01T16:25:14;4.10;;;3.77;;
5010;SDS011;2524;54.364;10.072;2023-03-01T16:27:42;3.73;;;3.53;;
5010;SDS011;2524;54.364;10.072;2023-03-01T16:30:13;5.60;;;5.20;;
5010;SDS011;2524;54.364;10.072;2023-03-01T16:32:41;6.70;;;6.10;;
5010;SDS011;2524;54.364;10.072;2023-03-01T16:35:09;5.83;;;5.43;;
5010;SDS011;2524;54.364;10.072;2023-03-01T16:37:36;4.70;;;4.40;;
5010;SDS011;2524;54.364;10.072;2023-03-01T16:40:03;4.47;;;4.17;;
5010;SDS011;2524;54.364;10.072;2023-03-01T16:42:34;3.83;;;3.63;;
5010;SDS011;2524;54.364;10.072;2023-03-01T16:48:22;4.50;;;4.20;;
5010;SDS011;2524;54.364;10.072;2023-03-01T16:50:57;4.07;;;3.87;;
5010;SDS011;2524;54.364;10.072;2023-03-01T16:53:23;5.83;;;5.33;;
5010;SDS011;2524;54.364;10.072;2023-03-01T16:55:53;4.93;;;4.60;;
5010;SDS011;2524;54.364;10.072;2023-03-01T16:58:21;7.10;;;6.50;;
5010;SDS011;2524;54.364;10.072;2023-03-01T17:00:53;7.47;;;6.87;;
5010;SDS011;2524;54.364;10.072;2023-03-01T17:03:20;8.87;;;7.97;;
5010;SDS011;2524;54.364;10.072;2023-03-01T17:05:51;7.23;;;6.53;;
5010;SDS011;2524;54.364;10.072;2023-03-01T17:08:16;7.90;;;7.07;;
5010;SDS011;2524;54.364;10.072;2023-03-01T17:10:42;7.20;;;6.50;;